Airfield :
LOGIN :

Register | Disclaimer

   EN    FR    IT 

 










Legend :    VFR   Marginal VFR   IFR   Intensive IFR   Very Intensive IFR
Visi :
Ceiling :
>= 8 km
>= 3000ft
5 to 8 km
1000 to 3000 ft
1500m to 5 km
500 to 1000 ft
800 to 1500m
200 to 500 ft
< 800m
< 200 ft
Symbols :   Thunderstorms  Fog  Heavy snow  Heavy precipitations  Wind > 20 kt
SIGMETs :     Misc.  Thunderstorms  Icing  Turbulence  Mountain Waves  Volcanic Ashes







- Airport Elevation : 978 ft
- IATA code : LNZ


LOWL - Linz

CURRENT METAR :
  • 191220Z 26006KT 230V300 9999 FEW050 SCT065 15/02 Q1027 NOSIG

EXPIRED METARs :
  • 191150Z 27006KT 200V320 9999 FEW048 SCT060 16/04 Q1027 NOSIG
  • 191120Z 27005KT 210V310 9999 FEW045 SCT065 15/03 Q1027 NOSIG
  • 191050Z 21005KT 160V280 9999 FEW040 15/05 Q1027 NOSIG
  • 191020Z VRB03KT 9999 FEW036 14/04 Q1027 NOSIG
  • 190950Z VRB03KT 9999 FEW032 13/05 Q1027 NOSIG

TAF TAF LOWL
Valid from the 19 at 12:00 until the 20 at 12:00 UTC


191115Z 1912/2012 29004KT 9999 FEW035 SCT060 TX17/1914Z TN04/2004Z
BECMG 2003/2006 08003KT CAVOK
No reported NOTAMs for that airfield.



MET'MAP, your aeronautical weather chart ! - Copyright ORBIFLY December 2007 - Disclaimer

ORBIFLY MET'MAP TEAM :

Programming & Development : Alexandra Zaïnal
Concept & Development : Baudouin d'Aumeries
Co-Development & Prog : Marc-Olivier Méhu
Technical & hardware support : Manuel Goepfert

Contact : metmap@orbifly.com




SOURCES & CREDITS :

   NOAA